Strona główna
METAR-TAF:

METAR-TAF

Lotnisko :

Port lotniczy Bodø

Bodø, Norwegia

Szerokość geograficzna: 67-16N, Długość geograficzna: 014-22E, wysokość: 1 m

Aktualna obserwacja pogody

Raport powstał 17 minut temu, godzina 02:25 UTC
Wiatr 20 kt od zachód w porywach dochodzący do 30 kt
Temperatura -2°C
Wilgotność 80%
Ciśnienie 996 hPa
Widzialność: 1500 m
przelotny opad śniegu

METAR: ENBO 040225Z 27020G30KT 1500 SHSN VV008 M02/M05 Q0996

czas: 04:42 (02:42 UTC)

Prognoza

Prognoza ważna od 04 godzina 00 UTC do 04 godzina 24 UTC
Wiatr 8 kt od zachód
Widzialność 10 km lub więcej
Mało chmury na wysokości 1500 ft, Cumulonimbus.
Rozproszone chmury na wysokości 3500 ft
Przejściowo
od 04 godzina 00 UTC do 04 godzina 24 UTC
Wiatr 15 kt od zachodnio-północny zachód w porywach dochodzący do 25 kt
Widzialność: 1000 m
na wysokości 800 ft
przelotny opad śniegu, krupa śnieżna/lodowa

TAF: ENBO 0400/0424 28008KT 9999 FEW015CB SCT035 TEMPO 0400/0424 30015G25KT 1000 SHSNGS VV008

Obserwacja i prognoza pogody dla ponad 4000 lotnisk (raport METAR i TAF).

Dostępne stacje oznaczono żółtymi i czerwonymi punktami na mapie.

Najedź kursorem aby zobaczyć nazwę stacji.

Kliknij aby zobaczyć obserwacje i prognozy pogody.

Aby zmienić mapę: kliknij na zielony przycisk z czarnym krzyżykiem, aby powiększyć; na zielony przycisk z myślnikiem, aby pomniejszyć; na zielone strzałki, aby przejść do map sąsiednich.


METAR-TAF: